sensor_id;sensor_type;location;lat;lon;timestamp;temperature;humidity
1568;DHT22;777;47.156;8.326;2023-06-26T00:01:31;20.00;99.90
1568;DHT22;777;47.156;8.326;2023-06-26T00:03:59;20.00;99.90
1568;DHT22;777;47.156;8.326;2023-06-26T00:06:27;20.10;99.90
1568;DHT22;777;47.156;8.326;2023-06-26T00:08:54;20.10;99.90
1568;DHT22;777;47.156;8.326;2023-06-26T00:11:23;20.10;99.90
1568;DHT22;777;47.156;8.326;2023-06-26T00:13:50;19.70;99.90
1568;DHT22;777;47.156;8.326;2023-06-26T00:16:17;19.40;99.90
1568;DHT22;777;47.156;8.326;2023-06-26T00:18:44;19.70;99.90
1568;DHT22;777;47.156;8.326;2023-06-26T00:21:11;19.80;99.90
1568;DHT22;777;47.156;8.326;2023-06-26T00:23:38;19.30;99.90
1568;DHT22;777;47.156;8.326;2023-06-26T00:26:05;19.00;99.90
1568;DHT22;777;47.156;8.326;2023-06-26T00:28:34;19.40;99.90
1568;DHT22;777;47.156;8.326;2023-06-26T00:31:00;19.60;99.90
1568;DHT22;777;47.156;8.326;2023-06-26T00:33:29;19.60;99.90
1568;DHT22;777;47.156;8.326;2023-06-26T00:35:56;19.70;99.90
1568;DHT22;777;47.156;8.326;2023-06-26T00:38:23;19.60;99.90
1568;DHT22;777;47.156;8.326;2023-06-26T00:40:50;19.30;99.90
1568;DHT22;777;47.156;8.326;2023-06-26T00:43:17;19.60;99.90
1568;DHT22;777;47.156;8.326;2023-06-26T00:45:46;19.70;99.90
1568;DHT22;777;47.156;8.326;2023-06-26T00:48:13;19.80;99.90
1568;DHT22;777;47.156;8.326;2023-06-26T00:50:41;19.90;99.90
1568;DHT22;777;47.156;8.326;2023-06-26T00:53:09;19.90;99.90
1568;DHT22;777;47.156;8.326;2023-06-26T00:55:37;20.10;99.90
1568;DHT22;777;47.156;8.326;2023-06-26T00:58:04;20.00;99.90
1568;DHT22;777;47.156;8.326;2023-06-26T01:00:31;19.90;99.90
1568;DHT22;777;47.156;8.326;2023-06-26T01:03:00;19.60;99.90
1568;DHT22;777;47.156;8.326;2023-06-26T01:05:27;19.50;99.90
1568;DHT22;777;47.156;8.326;2023-06-26T01:07:54;19.50;99.90
1568;DHT22;777;47.156;8.326;2023-06-26T01:10:24;19.10;99.90
1568;DHT22;777;47.156;8.326;2023-06-26T01:12:53;18.90;99.90
1568;DHT22;777;47.156;8.326;2023-06-26T01:15:20;18.90;99.90
1568;DHT22;777;47.156;8.326;2023-06-26T01:17:51;19.10;99.90
1568;DHT22;777;47.156;8.326;2023-06-26T01:20:19;19.20;99.90
1568;DHT22;777;47.156;8.326;2023-06-26T01:22:56;19.10;99.90
1568;DHT22;777;47.156;8.326;2023-06-26T01:25:32;19.00;99.90
1568;DHT22;777;47.156;8.326;2023-06-26T01:28:06;18.90;99.90
1568;DHT22;777;47.156;8.326;2023-06-26T01:30:34;18.90;99.90
1568;DHT22;777;47.156;8.326;2023-06-26T01:33:03;19.00;99.90
1568;DHT22;777;47.156;8.326;2023-06-26T01:35:31;19.00;99.90
1568;DHT22;777;47.156;8.326;2023-06-26T01:38:12;18.90;99.90
1568;DHT22;777;47.156;8.326;2023-06-26T01:40:39;18.80;99.90
1568;DHT22;777;47.156;8.326;2023-06-26T01:43:14;18.60;99.90
1568;DHT22;777;47.156;8.326;2023-06-26T01:45:42;18.30;99.90
1568;DHT22;777;47.156;8.326;2023-06-26T01:48:12;18.00;99.90
1568;DHT22;777;47.156;8.326;2023-06-26T01:50:41;18.10;99.90
1568;DHT22;777;47.156;8.326;2023-06-26T01:53:15;18.10;99.90
1568;DHT22;777;47.156;8.326;2023-06-26T01:55:47;18.20;99.90
1568;DHT22;777;47.156;8.326;2023-06-26T01:58:21;18.00;99.90
1568;DHT22;777;47.156;8.326;2023-06-26T02:00:49;18.00;99.90
1568;DHT22;777;47.156;8.326;2023-06-26T02:03:16;17.90;99.90
1568;DHT22;777;47.156;8.326;2023-06-26T02:05:43;18.00;99.90
1568;DHT22;777;47.156;8.326;2023-06-26T02:08:14;17.80;99.90
1568;DHT22;777;47.156;8.326;2023-06-26T02:10:47;17.70;99.90
1568;DHT22;777;47.156;8.326;2023-06-26T02:13:16;17.70;99.90
1568;DHT22;777;47.156;8.326;2023-06-26T02:15:44;17.60;99.90
1568;DHT22;777;47.156;8.326;2023-06-26T02:18:11;17.70;99.90
1568;DHT22;777;47.156;8.326;2023-06-26T02:20:38;17.80;99.90
1568;DHT22;777;47.156;8.326;2023-06-26T02:23:05;17.70;99.90
1568;DHT22;777;47.156;8.326;2023-06-26T02:25:35;17.90;99.90
1568;DHT22;777;47.156;8.326;2023-06-26T02:28:02;17.90;99.90
1568;DHT22;777;47.156;8.326;2023-06-26T02:30:29;18.00;99.90
1568;DHT22;777;47.156;8.326;2023-06-26T02:33:03;18.20;99.90
1568;DHT22;777;47.156;8.326;2023-06-26T02:35:34;18.20;99.90
1568;DHT22;777;47.156;8.326;2023-06-26T02:38:01;17.90;99.90
1568;DHT22;777;47.156;8.326;2023-06-26T02:40:28;17.90;99.90
1568;DHT22;777;47.156;8.326;2023-06-26T02:42:55;17.50;99.90
1568;DHT22;777;47.156;8.326;2023-06-26T02:45:22;17.60;99.90
1568;DHT22;777;47.156;8.326;2023-06-26T02:47:50;17.70;99.90
1568;DHT22;777;47.156;8.326;2023-06-26T02:50:18;17.80;99.90
1568;DHT22;777;47.156;8.326;2023-06-26T02:53:05;18.00;99.90
1568;DHT22;777;47.156;8.326;2023-06-26T02:55:34;18.00;99.90
1568;DHT22;777;47.156;8.326;2023-06-26T02:58:01;17.80;99.90
1568;DHT22;777;47.156;8.326;2023-06-26T03:00:28;17.50;99.90
1568;DHT22;777;47.156;8.326;2023-06-26T03:02:57;17.30;99.90
1568;DHT22;777;47.156;8.326;2023-06-26T03:05:26;17.60;99.90
1568;DHT22;777;47.156;8.326;2023-06-26T03:07:53;17.50;99.90
1568;DHT22;777;47.156;8.326;2023-06-26T03:10:20;17.40;99.90
1568;DHT22;777;47.156;8.326;2023-06-26T03:12:47;17.20;99.90
1568;DHT22;777;47.156;8.326;2023-06-26T03:15:16;17.40;99.90
1568;DHT22;777;47.156;8.326;2023-06-26T03:17:45;17.40;99.90
1568;DHT22;777;47.156;8.326;2023-06-26T03:20:17;17.60;99.90
1568;DHT22;777;47.156;8.326;2023-06-26T03:22:54;17.80;99.90
1568;DHT22;777;47.156;8.326;2023-06-26T03:25:22;17.80;99.90
1568;DHT22;777;47.156;8.326;2023-06-26T03:27:56;17.80;99.90
1568;DHT22;777;47.156;8.326;2023-06-26T03:30:25;17.60;99.90
1568;DHT22;777;47.156;8.326;2023-06-26T03:32:54;17.70;99.90
1568;DHT22;777;47.156;8.326;2023-06-26T03:35:22;17.80;99.90
1568;DHT22;777;47.156;8.326;2023-06-26T03:37:49;17.80;99.90
1568;DHT22;777;47.156;8.326;2023-06-26T03:40:18;17.80;99.90
1568;DHT22;777;47.156;8.326;2023-06-26T03:42:45;17.80;99.90
1568;DHT22;777;47.156;8.326;2023-06-26T03:45:12;17.80;99.90
1568;DHT22;777;47.156;8.326;2023-06-26T03:47:40;17.70;99.90
1568;DHT22;777;47.156;8.326;2023-06-26T03:50:08;17.80;99.90
1568;DHT22;777;47.156;8.326;2023-06-26T03:52:35;17.80;99.90
1568;DHT22;777;47.156;8.326;2023-06-26T03:55:03;17.90;99.90
1568;DHT22;777;47.156;8.326;2023-06-26T03:57:31;18.10;99.90
1568;DHT22;777;47.156;8.326;2023-06-26T03:59:58;18.20;99.90
1568;DHT22;777;47.156;8.326;2023-06-26T04:02:25;18.50;99.90
1568;DHT22;777;47.156;8.326;2023-06-26T04:04:52;18.40;99.90
1568;DHT22;777;47.156;8.326;2023-06-26T04:07:20;18.60;99.90
1568;DHT22;777;47.156;8.326;2023-06-26T04:09:47;18.80;99.90
1568;DHT22;777;47.156;8.326;2023-06-26T04:12:14;19.00;99.90
1568;DHT22;777;47.156;8.326;2023-06-26T04:14:42;19.40;99.90
1568;DHT22;777;47.156;8.326;2023-06-26T04:17:10;20.10;99.90
1568;DHT22;777;47.156;8.326;2023-06-26T04:19:37;20.10;99.90
1568;DHT22;777;47.156;8.326;2023-06-26T04:22:04;20.60;99.90
1568;DHT22;777;47.156;8.326;2023-06-26T04:24:31;20.90;99.90
1568;DHT22;777;47.156;8.326;2023-06-26T04:26:58;21.20;99.90
1568;DHT22;777;47.156;8.326;2023-06-26T04:29:26;21.30;99.90
1568;DHT22;777;47.156;8.326;2023-06-26T04:31:55;21.20;99.90
1568;DHT22;777;47.156;8.326;2023-06-26T04:34:24;21.10;99.90
1568;DHT22;777;47.156;8.326;2023-06-26T04:36:50;21.40;99.90
1568;DHT22;777;47.156;8.326;2023-06-26T04:39:18;21.90;99.90
1568;DHT22;777;47.156;8.326;2023-06-26T04:41:45;22.60;99.90
1568;DHT22;777;47.156;8.326;2023-06-26T04:44:12;23.20;99.90
1568;DHT22;777;47.156;8.326;2023-06-26T04:46:39;23.60;99.90
1568;DHT22;777;47.156;8.326;2023-06-26T04:49:08;23.20;99.90
1568;DHT22;777;47.156;8.326;2023-06-26T04:51:35;23.30;99.90
1568;DHT22;777;47.156;8.326;2023-06-26T04:54:06;22.90;99.90
1568;DHT22;777;47.156;8.326;2023-06-26T04:56:33;22.60;99.90
1568;DHT22;777;47.156;8.326;2023-06-26T04:59:00;22.40;99.90
1568;DHT22;777;47.156;8.326;2023-06-26T05:01:27;22.10;99.90
1568;DHT22;777;47.156;8.326;2023-06-26T05:03:55;22.10;99.90
1568;DHT22;777;47.156;8.326;2023-06-26T05:06:24;22.00;99.90
1568;DHT22;777;47.156;8.326;2023-06-26T05:08:51;21.80;99.90
1568;DHT22;777;47.156;8.326;2023-06-26T05:11:18;21.70;99.90
1568;DHT22;777;47.156;8.326;2023-06-26T05:13:45;21.80;99.90
1568;DHT22;777;47.156;8.326;2023-06-26T05:16:12;22.00;99.90
1568;DHT22;777;47.156;8.326;2023-06-26T05:18:39;22.10;99.90
1568;DHT22;777;47.156;8.326;2023-06-26T05:21:06;22.20;99.90
1568;DHT22;777;47.156;8.326;2023-06-26T05:23:35;21.90;99.90
1568;DHT22;777;47.156;8.326;2023-06-26T05:26:03;22.00;99.90
1568;DHT22;777;47.156;8.326;2023-06-26T05:28:30;21.90;99.90
1568;DHT22;777;47.156;8.326;2023-06-26T05:30:58;22.10;99.90
1568;DHT22;777;47.156;8.326;2023-06-26T05:33:26;22.20;99.90
1568;DHT22;777;47.156;8.326;2023-06-26T05:35:54;22.30;99.90
1568;DHT22;777;47.156;8.326;2023-06-26T05:38:22;22.40;99.90
1568;DHT22;777;47.156;8.326;2023-06-26T05:40:51;22.60;99.90
1568;DHT22;777;47.156;8.326;2023-06-26T05:43:18;22.70;99.90
1568;DHT22;777;47.156;8.326;2023-06-26T05:45:47;22.90;99.90
1568;DHT22;777;47.156;8.326;2023-06-26T05:48:14;23.00;99.90
1568;DHT22;777;47.156;8.326;2023-06-26T05:50:42;23.10;99.90
1568;DHT22;777;47.156;8.326;2023-06-26T05:53:11;22.60;99.90
1568;DHT22;777;47.156;8.326;2023-06-26T05:55:38;22.60;99.90
1568;DHT22;777;47.156;8.326;2023-06-26T05:58:10;22.40;99.90
1568;DHT22;777;47.156;8.326;2023-06-26T06:00:38;22.40;99.90
1568;DHT22;777;47.156;8.326;2023-06-26T06:03:05;22.70;99.90
1568;DHT22;777;47.156;8.326;2023-06-26T06:05:32;22.50;99.90
1568;DHT22;777;47.156;8.326;2023-06-26T06:07:59;22.40;99.90
1568;DHT22;777;47.156;8.326;2023-06-26T06:10:26;22.70;99.90
1568;DHT22;777;47.156;8.326;2023-06-26T06:12:53;23.20;99.90
1568;DHT22;777;47.156;8.326;2023-06-26T06:15:21;23.20;99.90
1568;DHT22;777;47.156;8.326;2023-06-26T06:17:48;23.20;99.90
1568;DHT22;777;47.156;8.326;2023-06-26T06:20:16;23.20;99.90
1568;DHT22;777;47.156;8.326;2023-06-26T06:22:45;23.20;99.90
1568;DHT22;777;47.156;8.326;2023-06-26T06:25:14;23.20;99.90
1568;DHT22;777;47.156;8.326;2023-06-26T06:27:41;23.30;99.90
1568;DHT22;777;47.156;8.326;2023-06-26T06:30:10;23.40;99.90
1568;DHT22;777;47.156;8.326;2023-06-26T06:32:39;23.20;99.90
1568;DHT22;777;47.156;8.326;2023-06-26T06:35:07;23.60;99.90
1568;DHT22;777;47.156;8.326;2023-06-26T06:37:36;23.70;99.90
1568;DHT22;777;47.156;8.326;2023-06-26T06:40:04;24.00;99.90
1568;DHT22;777;47.156;8.326;2023-06-26T06:42:32;24.10;99.90
1568;DHT22;777;47.156;8.326;2023-06-26T06:45:00;24.20;99.90
1568;DHT22;777;47.156;8.326;2023-06-26T06:47:28;24.20;99.90
1568;DHT22;777;47.156;8.326;2023-06-26T06:49:56;24.40;99.90
1568;DHT22;777;47.156;8.326;2023-06-26T06:52:23;24.50;99.90
1568;DHT22;777;47.156;8.326;2023-06-26T06:54:54;24.60;99.90
1568;DHT22;777;47.156;8.326;2023-06-26T06:57:21;24.30;99.90
1568;DHT22;777;47.156;8.326;2023-06-26T06:59:48;24.70;99.90
1568;DHT22;777;47.156;8.326;2023-06-26T07:02:16;24.90;99.90
1568;DHT22;777;47.156;8.326;2023-06-26T07:04:44;25.00;99.90
1568;DHT22;777;47.156;8.326;2023-06-26T07:07:12;25.10;99.90
1568;DHT22;777;47.156;8.326;2023-06-26T07:09:40;25.30;99.90
1568;DHT22;777;47.156;8.326;2023-06-26T07:12:07;25.50;99.90
1568;DHT22;777;47.156;8.326;2023-06-26T07:14:34;25.90;99.90
1568;DHT22;777;47.156;8.326;2023-06-26T07:17:01;26.30;99.90
1568;DHT22;777;47.156;8.326;2023-06-26T07:19:28;26.30;99.90
1568;DHT22;777;47.156;8.326;2023-06-26T07:21:55;26.10;99.90
1568;DHT22;777;47.156;8.326;2023-06-26T07:24:24;26.40;99.90
1568;DHT22;777;47.156;8.326;2023-06-26T07:26:52;26.70;99.90
1568;DHT22;777;47.156;8.326;2023-06-26T07:29:19;26.30;99.90
1568;DHT22;777;47.156;8.326;2023-06-26T07:31:46;26.30;99.90
1568;DHT22;777;47.156;8.326;2023-06-26T07:34:13;26.20;99.90
1568;DHT22;777;47.156;8.326;2023-06-26T07:36:40;26.40;99.90
1568;DHT22;777;47.156;8.326;2023-06-26T07:39:07;26.60;99.90
1568;DHT22;777;47.156;8.326;2023-06-26T07:41:36;26.90;99.90
1568;DHT22;777;47.156;8.326;2023-06-26T07:44:03;26.50;99.90
1568;DHT22;777;47.156;8.326;2023-06-26T07:46:30;26.80;99.90
1568;DHT22;777;47.156;8.326;2023-06-26T07:48:57;27.40;99.90
1568;DHT22;777;47.156;8.326;2023-06-26T07:51:24;26.90;99.90
1568;DHT22;777;47.156;8.326;2023-06-26T07:53:51;26.80;99.90
1568;DHT22;777;47.156;8.326;2023-06-26T07:56:18;26.40;99.90
1568;DHT22;777;47.156;8.326;2023-06-26T07:58:47;26.80;99.90
1568;DHT22;777;47.156;8.326;2023-06-26T08:01:14;26.70;99.90
1568;DHT22;777;47.156;8.326;2023-06-26T08:03:41;26.70;99.90
1568;DHT22;777;47.156;8.326;2023-06-26T08:06:08;26.50;99.90
1568;DHT22;777;47.156;8.326;2023-06-26T08:08:35;27.10;99.90
1568;DHT22;777;47.156;8.326;2023-06-26T08:11:03;27.40;99.90
1568;DHT22;777;47.156;8.326;2023-06-26T08:13:30;27.70;99.90
1568;DHT22;777;47.156;8.326;2023-06-26T08:15:59;28.10;99.90
1568;DHT22;777;47.156;8.326;2023-06-26T08:18:26;28.40;99.90
1568;DHT22;777;47.156;8.326;2023-06-26T08:20:53;28.60;99.90
1568;DHT22;777;47.156;8.326;2023-06-26T08:23:20;29.00;99.90
1568;DHT22;777;47.156;8.326;2023-06-26T08:25:47;29.10;99.90
1568;DHT22;777;47.156;8.326;2023-06-26T08:28:14;29.10;99.90
1568;DHT22;777;47.156;8.326;2023-06-26T08:30:41;29.00;99.90
1568;DHT22;777;47.156;8.326;2023-06-26T08:33:10;28.70;99.90
1568;DHT22;777;47.156;8.326;2023-06-26T08:35:38;28.60;99.90
1568;DHT22;777;47.156;8.326;2023-06-26T08:38:05;28.90;99.90
1568;DHT22;777;47.156;8.326;2023-06-26T08:40:32;28.80;99.90
1568;DHT22;777;47.156;8.326;2023-06-26T08:42:59;29.30;99.90
1568;DHT22;777;47.156;8.326;2023-06-26T08:45:26;29.20;99.90
1568;DHT22;777;47.156;8.326;2023-06-26T08:47:55;29.20;99.90
1568;DHT22;777;47.156;8.326;2023-06-26T08:50:29;29.40;99.90
1568;DHT22;777;47.156;8.326;2023-06-26T08:53:03;29.30;99.90
1568;DHT22;777;47.156;8.326;2023-06-26T08:55:35;29.20;99.90
1568;DHT22;777;47.156;8.326;2023-06-26T08:58:05;28.80;99.90
1568;DHT22;777;47.156;8.326;2023-06-26T09:00:32;28.50;99.90
1568;DHT22;777;47.156;8.326;2023-06-26T09:02:59;28.80;99.90
1568;DHT22;777;47.156;8.326;2023-06-26T09:05:29;29.10;99.90
1568;DHT22;777;47.156;8.326;2023-06-26T09:07:57;29.50;99.90
1568;DHT22;777;47.156;8.326;2023-06-26T09:10:24;29.90;99.90
1568;DHT22;777;47.156;8.326;2023-06-26T09:12:55;29.70;99.90
1568;DHT22;777;47.156;8.326;2023-06-26T09:15:22;29.60;99.90
1568;DHT22;777;47.156;8.326;2023-06-26T09:17:50;29.70;99.90
1568;DHT22;777;47.156;8.326;2023-06-26T09:20:22;30.00;99.90
1568;DHT22;777;47.156;8.326;2023-06-26T09:22:50;30.00;99.90
1568;DHT22;777;47.156;8.326;2023-06-26T09:25:19;29.80;99.90
1568;DHT22;777;47.156;8.326;2023-06-26T09:27:48;30.00;99.90
1568;DHT22;777;47.156;8.326;2023-06-26T09:30:17;30.20;99.90
1568;DHT22;777;47.156;8.326;2023-06-26T09:32:45;30.30;99.90
1568;DHT22;777;47.156;8.326;2023-06-26T09:35:12;30.60;99.90
1568;DHT22;777;47.156;8.326;2023-06-26T09:37:39;30.50;99.90
1568;DHT22;777;47.156;8.326;2023-06-26T09:40:09;30.80;99.90
1568;DHT22;777;47.156;8.326;2023-06-26T09:42:36;31.00;99.90
1568;DHT22;777;47.156;8.326;2023-06-26T09:45:04;31.00;99.90
1568;DHT22;777;47.156;8.326;2023-06-26T09:47:31;30.70;99.90
1568;DHT22;777;47.156;8.326;2023-06-26T09:49:58;30.90;99.90
1568;DHT22;777;47.156;8.326;2023-06-26T09:52:26;31.30;99.90
1568;DHT22;777;47.156;8.326;2023-06-26T09:55:09;31.30;99.90
1568;DHT22;777;47.156;8.326;2023-06-26T09:57:36;31.00;99.90
1568;DHT22;777;47.156;8.326;2023-06-26T10:00:03;30.70;99.90
1568;DHT22;777;47.156;8.326;2023-06-26T10:02:38;31.00;99.90
1568;DHT22;777;47.156;8.326;2023-06-26T10:05:05;31.10;99.90
1568;DHT22;777;47.156;8.326;2023-06-26T10:07:33;31.10;99.90
1568;DHT22;777;47.156;8.326;2023-06-26T10:10:02;31.00;99.90
1568;DHT22;777;47.156;8.326;2023-06-26T10:12:31;31.40;99.90
1568;DHT22;777;47.156;8.326;2023-06-26T10:14:59;31.50;99.90
1568;DHT22;777;47.156;8.326;2023-06-26T10:17:32;31.60;99.90
1568;DHT22;777;47.156;8.326;2023-06-26T10:20:02;31.60;99.90
1568;DHT22;777;47.156;8.326;2023-06-26T10:22:33;31.70;99.90
1568;DHT22;777;47.156;8.326;2023-06-26T10:25:03;31.80;99.90
1568;DHT22;777;47.156;8.326;2023-06-26T10:27:37;31.70;99.90
1568;DHT22;777;47.156;8.326;2023-06-26T10:30:09;31.90;99.90
1568;DHT22;777;47.156;8.326;2023-06-26T10:32:38;31.50;99.90
1568;DHT22;777;47.156;8.326;2023-06-26T10:35:07;31.10;99.90
1568;DHT22;777;47.156;8.326;2023-06-26T10:37:44;30.70;99.90
1568;DHT22;777;47.156;8.326;2023-06-26T10:40:11;30.80;99.90
1568;DHT22;777;47.156;8.326;2023-06-26T10:42:40;31.40;99.90
1568;DHT22;777;47.156;8.326;2023-06-26T10:45:13;31.50;99.40
1568;DHT22;777;47.156;8.326;2023-06-26T10:47:41;31.40;98.80
1568;DHT22;777;47.156;8.326;2023-06-26T10:50:23;31.30;99.90
1568;DHT22;777;47.156;8.326;2023-06-26T10:53:10;31.10;99.00
1568;DHT22;777;47.156;8.326;2023-06-26T10:55:37;31.40;98.70
1568;DHT22;777;47.156;8.326;2023-06-26T10:58:27;31.90;99.50
1568;DHT22;777;47.156;8.326;2023-06-26T11:01:19;31.40;99.90
1568;DHT22;777;47.156;8.326;2023-06-26T11:03:48;31.80;99.90
1568;DHT22;777;47.156;8.326;2023-06-26T11:06:18;32.10;99.90
1568;DHT22;777;47.156;8.326;2023-06-26T11:08:46;32.40;99.40
1568;DHT22;777;47.156;8.326;2023-06-26T11:11:13;32.30;99.10
1568;DHT22;777;47.156;8.326;2023-06-26T11:13:42;32.60;99.00
1568;DHT22;777;47.156;8.326;2023-06-26T11:16:12;32.80;99.40
1568;DHT22;777;47.156;8.326;2023-06-26T11:18:40;32.40;98.70
1568;DHT22;777;47.156;8.326;2023-06-26T11:21:08;31.90;98.60
1568;DHT22;777;47.156;8.326;2023-06-26T11:23:36;32.40;99.60
1568;DHT22;777;47.156;8.326;2023-06-26T11:26:16;32.70;99.10
1568;DHT22;777;47.156;8.326;2023-06-26T11:28:49;33.00;97.70
1568;DHT22;777;47.156;8.326;2023-06-26T11:31:26;32.30;97.80
1568;DHT22;777;47.156;8.326;2023-06-26T11:33:53;33.10;97.80
1568;DHT22;777;47.156;8.326;2023-06-26T11:36:23;33.50;96.40
1568;DHT22;777;47.156;8.326;2023-06-26T11:38:54;33.20;97.40
1568;DHT22;777;47.156;8.326;2023-06-26T11:41:22;33.00;96.40
1568;DHT22;777;47.156;8.326;2023-06-26T11:43:51;32.90;97.10
1568;DHT22;777;47.156;8.326;2023-06-26T11:46:20;33.10;97.00
1568;DHT22;777;47.156;8.326;2023-06-26T11:48:47;33.10;96.70
1568;DHT22;777;47.156;8.326;2023-06-26T11:51:15;32.80;97.50
1568;DHT22;777;47.156;8.326;2023-06-26T11:53:44;33.30;97.00
1568;DHT22;777;47.156;8.326;2023-06-26T11:56:15;33.60;97.30
1568;DHT22;777;47.156;8.326;2023-06-26T11:58:59;33.80;97.30
1568;DHT22;777;47.156;8.326;2023-06-26T12:01:31;33.70;95.20
1568;DHT22;777;47.156;8.326;2023-06-26T12:03:59;32.90;95.10
1568;DHT22;777;47.156;8.326;2023-06-26T12:06:27;33.50;95.80
1568;DHT22;777;47.156;8.326;2023-06-26T12:08:55;33.80;95.60
1568;DHT22;777;47.156;8.326;2023-06-26T12:11:23;34.40;95.10
1568;DHT22;777;47.156;8.326;2023-06-26T12:13:51;34.70;97.50
1568;DHT22;777;47.156;8.326;2023-06-26T12:16:20;35.00;99.30
1568;DHT22;777;47.156;8.326;2023-06-26T12:18:47;35.30;98.90
1568;DHT22;777;47.156;8.326;2023-06-26T12:21:46;35.00;98.00
1568;DHT22;777;47.156;8.326;2023-06-26T12:24:15;35.10;99.20
1568;DHT22;777;47.156;8.326;2023-06-26T12:26:44;35.80;99.20
1568;DHT22;777;47.156;8.326;2023-06-26T12:29:12;36.00;99.20
1568;DHT22;777;47.156;8.326;2023-06-26T12:31:45;35.80;99.70
1568;DHT22;777;47.156;8.326;2023-06-26T12:34:13;36.00;98.90
1568;DHT22;777;47.156;8.326;2023-06-26T12:36:44;35.60;98.90
1568;DHT22;777;47.156;8.326;2023-06-26T12:39:12;35.50;99.40
1568;DHT22;777;47.156;8.326;2023-06-26T12:41:53;35.40;99.90
1568;DHT22;777;47.156;8.326;2023-06-26T12:44:21;34.30;99.90
1568;DHT22;777;47.156;8.326;2023-06-26T12:46:53;33.20;99.90
1568;DHT22;777;47.156;8.326;2023-06-26T12:49:20;33.00;99.90
1568;DHT22;777;47.156;8.326;2023-06-26T12:51:55;32.70;99.90
1568;DHT22;777;47.156;8.326;2023-06-26T12:54:24;33.30;99.90
1568;DHT22;777;47.156;8.326;2023-06-26T12:56:51;34.50;99.90
1568;DHT22;777;47.156;8.326;2023-06-26T12:59:18;35.70;99.90
1568;DHT22;777;47.156;8.326;2023-06-26T13:01:46;36.00;99.90
1568;DHT22;777;47.156;8.326;2023-06-26T13:04:14;36.00;99.90
1568;DHT22;777;47.156;8.326;2023-06-26T13:06:41;35.70;99.90
1568;DHT22;777;47.156;8.326;2023-06-26T13:09:08;36.60;99.80
1568;DHT22;777;47.156;8.326;2023-06-26T13:11:36;36.60;99.30
1568;DHT22;777;47.156;8.326;2023-06-26T13:14:03;36.50;98.80
1568;DHT22;777;47.156;8.326;2023-06-26T13:16:30;36.30;99.30
1568;DHT22;777;47.156;8.326;2023-06-26T13:18:58;35.70;99.80
1568;DHT22;777;47.156;8.326;2023-06-26T13:21:27;35.50;99.70
1568;DHT22;777;47.156;8.326;2023-06-26T13:23:55;35.90;99.80
1568;DHT22;777;47.156;8.326;2023-06-26T13:26:22;36.40;99.00
1568;DHT22;777;47.156;8.326;2023-06-26T13:28:51;36.70;98.80
1568;DHT22;777;47.156;8.326;2023-06-26T13:31:18;37.00;98.00
1568;DHT22;777;47.156;8.326;2023-06-26T13:33:46;37.30;97.60
1568;DHT22;777;47.156;8.326;2023-06-26T13:36:15;37.90;97.30
1568;DHT22;777;47.156;8.326;2023-06-26T13:38:43;37.20;97.00
1568;DHT22;777;47.156;8.326;2023-06-26T13:41:11;37.20;97.10
1568;DHT22;777;47.156;8.326;2023-06-26T13:43:38;36.80;97.00
1568;DHT22;777;47.156;8.326;2023-06-26T13:46:05;36.90;97.20
1568;DHT22;777;47.156;8.326;2023-06-26T13:48:32;37.00;96.60
1568;DHT22;777;47.156;8.326;2023-06-26T13:50:59;37.70;96.20
1568;DHT22;777;47.156;8.326;2023-06-26T13:53:26;37.50;95.70
1568;DHT22;777;47.156;8.326;2023-06-26T13:55:54;38.00;95.10
1568;DHT22;777;47.156;8.326;2023-06-26T13:58:21;38.30;94.80
1568;DHT22;777;47.156;8.326;2023-06-26T14:00:52;38.80;93.40
1568;DHT22;777;47.156;8.326;2023-06-26T14:03:19;39.10;93.20
1568;DHT22;777;47.156;8.326;2023-06-26T14:05:46;39.20;92.40
1568;DHT22;777;47.156;8.326;2023-06-26T14:08:13;39.50;92.40
1568;DHT22;777;47.156;8.326;2023-06-26T14:10:40;39.70;92.20
1568;DHT22;777;47.156;8.326;2023-06-26T14:13:09;39.80;91.70
1568;DHT22;777;47.156;8.326;2023-06-26T14:15:37;36.40;91.90
1568;DHT22;777;47.156;8.326;2023-06-26T14:18:06;37.90;92.20
1568;DHT22;777;47.156;8.326;2023-06-26T14:20:33;38.70;92.40
1568;DHT22;777;47.156;8.326;2023-06-26T14:23:01;39.20;91.50
1568;DHT22;777;47.156;8.326;2023-06-26T14:25:28;39.50;91.30
1568;DHT22;777;47.156;8.326;2023-06-26T14:27:56;39.50;91.10
1568;DHT22;777;47.156;8.326;2023-06-26T14:30:25;39.70;91.40
1568;DHT22;777;47.156;8.326;2023-06-26T14:32:52;40.10;90.90
1568;DHT22;777;47.156;8.326;2023-06-26T14:35:19;40.10;90.10
1568;DHT22;777;47.156;8.326;2023-06-26T14:37:47;39.60;90.30
1568;DHT22;777;47.156;8.326;2023-06-26T14:40:14;39.70;90.00
1568;DHT22;777;47.156;8.326;2023-06-26T14:42:41;40.10;88.80
1568;DHT22;777;47.156;8.326;2023-06-26T14:45:11;38.20;90.40
1568;DHT22;777;47.156;8.326;2023-06-26T14:47:39;37.60;91.50
1568;DHT22;777;47.156;8.326;2023-06-26T14:50:08;36.60;92.10
1568;DHT22;777;47.156;8.326;2023-06-26T14:52:35;35.60;92.70
1568;DHT22;777;47.156;8.326;2023-06-26T14:55:03;35.90;93.70
1568;DHT22;777;47.156;8.326;2023-06-26T14:57:30;36.80;93.00
1568;DHT22;777;47.156;8.326;2023-06-26T14:59:57;36.80;92.70
1568;DHT22;777;47.156;8.326;2023-06-26T15:02:24;37.10;92.70
1568;DHT22;777;47.156;8.326;2023-06-26T15:04:52;37.30;92.40
1568;DHT22;777;47.156;8.326;2023-06-26T15:07:19;37.40;92.10
1568;DHT22;777;47.156;8.326;2023-06-26T15:09:46;36.00;92.80
1568;DHT22;777;47.156;8.326;2023-06-26T15:12:13;34.90;94.70
1568;DHT22;777;47.156;8.326;2023-06-26T15:14:40;34.50;95.00
1568;DHT22;777;47.156;8.326;2023-06-26T15:17:07;34.30;95.10
1568;DHT22;777;47.156;8.326;2023-06-26T15:19:34;34.70;95.40
1568;DHT22;777;47.156;8.326;2023-06-26T15:22:03;36.00;93.90
1568;DHT22;777;47.156;8.326;2023-06-26T15:24:30;36.60;93.10
1568;DHT22;777;47.156;8.326;2023-06-26T15:26:57;36.40;92.70
1568;DHT22;777;47.156;8.326;2023-06-26T15:29:23;36.60;93.20
1568;DHT22;777;47.156;8.326;2023-06-26T15:31:51;36.60;93.10
1568;DHT22;777;47.156;8.326;2023-06-26T15:34:18;36.10;93.10
1568;DHT22;777;47.156;8.326;2023-06-26T15:36:45;36.10;93.30
1568;DHT22;777;47.156;8.326;2023-06-26T15:39:13;36.40;93.10
1568;DHT22;777;47.156;8.326;2023-06-26T15:41:41;37.10;92.70
1568;DHT22;777;47.156;8.326;2023-06-26T15:44:08;36.70;92.80
1568;DHT22;777;47.156;8.326;2023-06-26T15:46:35;36.50;92.80
1568;DHT22;777;47.156;8.326;2023-06-26T15:49:02;37.10;92.40
1568;DHT22;777;47.156;8.326;2023-06-26T15:51:29;37.00;92.30
1568;DHT22;777;47.156;8.326;2023-06-26T15:53:56;36.40;92.50
1568;DHT22;777;47.156;8.326;2023-06-26T15:56:24;35.00;93.00
1568;DHT22;777;47.156;8.326;2023-06-26T15:58:51;34.30;94.80
1568;DHT22;777;47.156;8.326;2023-06-26T16:01:18;33.50;95.70
1568;DHT22;777;47.156;8.326;2023-06-26T16:03:46;33.10;95.30
1568;DHT22;777;47.156;8.326;2023-06-26T16:06:13;32.50;96.20
1568;DHT22;777;47.156;8.326;2023-06-26T16:08:41;32.10;96.90
1568;DHT22;777;47.156;8.326;2023-06-26T16:11:10;31.50;97.10
1568;DHT22;777;47.156;8.326;2023-06-26T16:13:38;32.30;97.30
1568;DHT22;777;47.156;8.326;2023-06-26T16:16:05;31.90;97.10
1568;DHT22;777;47.156;8.326;2023-06-26T16:18:33;31.70;97.20
1568;DHT22;777;47.156;8.326;2023-06-26T16:21:00;31.80;97.10
1568;DHT22;777;47.156;8.326;2023-06-26T16:23:27;32.50;96.40
1568;DHT22;777;47.156;8.326;2023-06-26T16:25:54;32.30;95.80